Time;durP1;ratioP1;P1;durP2;ratioP2;P2;SDS_P1;SDS_P2;PMS_P1;PMS_P2;Temp;Humidity;BMP_temperature;BMP_pressure;BME280_temperature;BME280_humidity;BME280_pressure;Samples;Min_cycle;Max_cycle;Signal;HPM_P1;HPM_P2
2021/12/24 00:01:45;;;;;;;44.80;32.85;;;;;;;8.01;100.00;100427.72;5217407;28;20025;-72
2021/12/24 00:04:16;;;;;;;43.60;30.45;;;;;;;8.04;100.00;100430.06;5214502;28;20040;-74
2021/12/24 00:06:49;;;;;;;42.85;31.33;;;;;;;8.08;100.00;100428.03;5215508;28;20100;-72
2021/12/24 00:09:22;;;;;;;43.53;31.27;;;;;;;8.11;100.00;100419.97;5215974;28;20228;-71
2021/12/24 00:12:00;;;;;;;39.03;28.95;;;;;;;8.07;100.00;100421.16;5213908;28;20487;-71
2021/12/24 00:14:32;;;;;;;36.72;28.27;;;;;;;8.11;100.00;100419.97;5214518;28;20044;-71
2021/12/24 00:17:05;;;;;;;35.80;27.85;;;;;;;8.10;100.00;100413.06;5215094;28;20030;-71
2021/12/24 00:19:44;;;;;;;35.85;28.15;;;;;;;8.07;100.00;100422.00;5214388;28;20029;-71
2021/12/24 00:36:07;;;;;;;35.10;27.92;;;;;;;8.20;100.00;100417.44;5214935;28;20634;-72
2021/12/24 00:38:38;;;;;;;34.63;27.63;;;;;;;8.25;100.00;100411.81;5213779;28;20037;-75
2021/12/24 00:41:10;;;;;;;33.67;27.75;;;;;;;8.25;100.00;100409.22;5214230;28;20032;-73
2021/12/24 00:43:41;;;;;;;32.35;27.60;;;;;;;8.27;100.00;100400.31;5215169;28;20162;-72
2021/12/24 00:46:12;;;;;;;31.70;27.15;;;;;;;8.25;100.00;100396.16;5213871;28;20454;-74
2021/12/24 00:48:45;;;;;;;34.22;27.65;;;;;;;8.28;100.00;100394.13;5212903;28;20117;-71
2021/12/24 00:56:52;;;;;;;30.75;27.42;;;;;;;8.39;100.00;100387.25;5214712;28;20034;-75
2021/12/24 00:59:23;;;;;;;33.20;26.27;;;;;;;8.37;100.00;100392.59;5214243;28;20037;-72
2021/12/24 01:01:55;;;;;;;31.08;27.77;;;;;;;8.40;100.00;100391.50;5213716;28;20397;-73
2021/12/24 01:04:26;;;;;;;34.05;27.77;;;;;;;8.40;100.00;100387.09;5213563;28;20026;-75
2021/12/24 01:06:58;;;;;;;32.25;28.48;;;;;;;8.46;100.00;100391.00;5214509;28;20057;-72
2021/12/24 01:09:29;;;;;;;34.25;28.05;;;;;;;8.51;100.00;100391.44;5215690;28;20033;-73
2021/12/24 01:12:00;;;;;;;34.05;29.52;;;;;;;8.50;100.00;100385.38;5215718;28;20406;-72
2021/12/24 01:14:32;;;;;;;33.00;28.40;;;;;;;8.54;100.00;100391.19;5216714;28;20033;-71
2021/12/24 01:17:16;;;;;;;35.15;30.23;;;;;;;8.56;100.00;100380.59;5215682;28;20038;-73
2021/12/24 01:19:50;;;;;;;46.83;33.90;;;;;;;8.60;100.00;100387.22;5214576;28;20044;-75
2021/12/24 01:25:25;;;;;;;43.25;34.28;;;;;;;8.60;100.00;100376.78;5220256;28;20112;-72
2021/12/24 01:28:30;;;;;;;44.78;35.08;;;;;;;8.69;100.00;100383.84;5236870;28;20033;-72
2021/12/24 01:45:27;;;;;;;57.55;46.00;;;;;;;8.89;100.00;100380.38;5220436;28;20033;-72
2021/12/24 01:48:05;;;;;;;64.75;46.78;;;;;;;8.92;100.00;100380.13;5218894;28;20026;-73
2021/12/24 01:50:39;;;;;;;64.38;47.88;;;;;;;8.87;100.00;100379.69;5220507;28;20064;-72
2021/12/24 01:53:11;;;;;;;61.80;46.03;;;;;;;8.91;100.00;100386.31;5218577;28;20060;-72
2021/12/24 01:55:45;;;;;;;60.08;45.90;;;;;;;8.97;100.00;100385.75;5219790;28;20025;-74
2021/12/24 01:58:22;;;;;;;60.50;48.10;;;;;;;8.99;100.00;100386.47;5218232;28;20029;-75
2021/12/24 02:00:56;;;;;;;60.17;47.50;;;;;;;8.95;100.00;100377.25;5218562;28;20630;-71
2021/12/24 02:03:27;;;;;;;57.70;45.55;;;;;;;9.01;100.00;100381.94;5217433;28;20034;-72
2021/12/24 02:05:59;;;;;;;56.65;45.22;;;;;;;9.05;100.00;100385.09;5223485;28;20060;-73
2021/12/24 02:08:30;;;;;;;59.88;46.05;;;;;;;9.05;100.00;100381.66;5219163;28;20103;-72
2021/12/24 02:11:02;;;;;;;58.45;47.30;;;;;;;9.04;100.00;100367.78;5216366;28;20032;-72
2021/12/24 02:13:33;;;;;;;59.05;47.17;;;;;;;9.07;100.00;100380.59;5218154;28;20038;-72
2021/12/24 02:30:12;;;;;;;58.80;44.47;;;;;;;9.16;100.00;100369.34;5218147;28;20471;-72
2021/12/24 02:32:43;;;;;;;55.78;44.55;;;;;;;9.19;100.00;100368.25;5219801;28;20055;-72
2021/12/24 02:35:18;;;;;;;60.03;46.70;;;;;;;9.23;100.00;100373.06;5217134;28;20569;-72
2021/12/24 02:37:50;;;;;;;58.00;47.10;;;;;;;9.20;100.00;100370.72;5220075;28;20109;-72
2021/12/24 02:40:21;;;;;;;65.25;49.10;;;;;;;9.24;100.00;100363.44;5221017;28;20093;-71
2021/12/24 02:42:55;;;;;;;65.72;49.50;;;;;;;9.20;100.00;100356.81;5221103;28;20112;-72
2021/12/24 02:45:30;;;;;;;66.18;51.50;;;;;;;9.30;100.00;100362.09;5219594;28;20108;-72
2021/12/24 02:56:23;;;;;;;75.22;52.97;;;;;;;9.30;100.00;100357.69;5221671;28;20046;-72
2021/12/24 02:58:56;;;;;;;75.68;55.13;;;;;;;9.30;100.00;100362.91;5220640;28;20091;-72
2021/12/24 03:01:31;;;;;;;74.35;53.40;;;;;;;9.34;100.00;100366.91;5220632;28;20427;-72
2021/12/24 03:04:04;;;;;;;72.00;53.47;;;;;;;9.32;100.00;100355.78;5218461;28;20092;-72
2021/12/24 03:06:39;;;;;;;78.95;54.38;;;;;;;9.37;100.00;100355.38;5220317;28;20380;-73
2021/12/24 03:09:14;;;;;;;75.63;55.78;;;;;;;9.30;100.00;100352.47;5217035;28;20033;-72
2021/12/24 03:11:47;;;;;;;76.88;55.17;;;;;;;9.31;100.00;100350.66;5215351;28;20479;-72
2021/12/24 03:14:19;;;;;;;75.05;55.38;;;;;;;9.28;100.00;100346.56;5217366;28;20036;-72
2021/12/24 03:16:58;;;;;;;78.53;55.72;;;;;;;9.34;100.00;100345.19;5214911;28;20110;-72
2021/12/24 03:19:32;;;;;;;77.47;54.78;;;;;;;9.35;100.00;100358.09;5216082;28;20037;-72
2021/12/24 03:22:34;;;;;;;80.80;55.95;;;;;;;9.34;100.00;100356.47;5215482;28;20527;-72
2021/12/24 03:25:06;;;;;;;90.10;56.10;;;;;;;9.38;100.00;100357.84;5216865;28;20046;-72
2021/12/24 03:27:37;;;;;;;81.30;53.33;;;;;;;9.37;100.00;100358.00;5216127;28;20022;-72
2021/12/24 03:30:09;;;;;;;83.00;54.55;;;;;;;9.37;100.00;100366.66;5216690;28;20045;-73
2021/12/24 03:32:40;;;;;;;74.35;53.53;;;;;;;9.37;100.00;100374.50;5216718;28;20037;-72
2021/12/24 03:35:12;;;;;;;80.88;52.05;;;;;;;9.40;100.00;100373.41;5214831;28;20017;-72
2021/12/24 03:37:43;;;;;;;74.85;52.75;;;;;;;9.41;100.00;100373.28;5216287;28;20026;-72
2021/12/24 03:40:14;;;;;;;71.75;50.90;;;;;;;9.40;100.00;100369.00;5216720;28;20129;-72
2021/12/24 03:42:46;;;;;;;72.47;50.15;;;;;;;9.44;100.00;100370.38;5215644;28;20505;-72
2021/12/24 03:45:29;;;;;;;76.80;53.13;;;;;;;9.46;100.00;100378.09;5218638;28;20025;-72
2021/12/24 03:48:04;;;;;;;75.85;51.45;;;;;;;9.47;100.00;100379.72;5215016;28;20033;-72
2021/12/24 03:50:48;;;;;;;82.55;51.35;;;;;;;9.44;100.00;100373.00;5217036;28;20036;-72
2021/12/24 03:56:09;;;;;;;73.43;50.33;;;;;;;9.48;100.00;100370.94;5215664;28;20065;-72
2021/12/24 03:58:42;;;;;;;68.95;46.30;;;;;;;9.48;100.00;100374.38;5215280;28;20590;-72
2021/12/24 04:01:13;;;;;;;67.43;45.55;;;;;;;9.42;100.00;100374.09;5215307;28;20113;-72
2021/12/24 04:03:45;;;;;;;68.85;44.83;;;;;;;9.50;100.00;100375.06;5214768;28;20041;-72
2021/12/24 04:06:16;;;;;;;63.78;42.90;;;;;;;9.54;100.00;100378.25;5214545;28;20093;-72
2021/12/24 04:08:48;;;;;;;67.05;43.25;;;;;;;9.54;100.00;100366.94;5224144;28;20518;-72
2021/12/24 04:11:19;;;;;;;62.40;43.28;;;;;;;9.53;100.00;100378.38;5217122;28;20034;-72
2021/12/24 04:13:51;;;;;;;60.13;40.42;;;;;;;9.57;100.00;100372.75;5217295;28;20034;-72
2021/12/24 04:16:22;;;;;;;56.72;37.92;;;;;;;9.53;100.00;100363.53;5213755;28;20033;-72
2021/12/24 04:19:13;;;;;;;51.15;36.00;;;;;;;9.57;100.00;100369.31;5217436;28;20057;-72
2021/12/24 04:24:50;;;;;;;43.00;32.13;;;;;;;9.57;100.00;100369.31;5215337;28;20045;-72
2021/12/24 04:27:30;;;;;;;43.25;29.35;;;;;;;9.67;100.00;100370.16;5216290;28;20510;-72
2021/12/24 04:30:08;;;;;;;42.80;26.48;;;;;;;9.53;100.00;100363.53;5218867;28;20044;-72
2021/12/24 04:33:10;;;;;;;41.78;26.20;;;;;;;9.53;100.00;100370.53;5220059;28;20117;-72
2021/12/24 04:35:46;;;;;;;33.92;24.50;;;;;;;9.52;100.00;100368.91;5220241;28;20080;-72
2021/12/24 04:53:11;;;;;;;32.83;20.23;;;;;;;9.62;100.00;100369.72;5220239;28;21021;-72
2021/12/24 05:03:45;;;;;;;37.03;21.58;;;;;;;9.60;100.00;100361.19;5217971;28;20037;-72
2021/12/24 05:08:57;;;;;;;31.30;21.58;;;;;;;9.56;100.00;100378.94;5219224;28;20115;-72
2021/12/24 05:11:28;;;;;;;33.47;20.27;;;;;;;9.55;100.00;100371.25;5219194;28;20037;-72
2021/12/24 05:13:59;;;;;;;33.53;20.63;;;;;;;9.61;100.00;100378.53;5220841;28;20487;-72
2021/12/24 05:16:47;;;;;;;34.10;20.65;;;;;;;9.55;100.00;100372.06;5218049;28;20072;-72
2021/12/24 05:21:55;;;;;;;34.45;19.27;;;;;;;9.55;100.00;100373.88;5216944;28;20038;-72
2021/12/24 05:24:27;;;;;;;36.63;19.83;;;;;;;9.53;100.00;100383.63;5218357;28;20038;-72
2021/12/24 05:27:01;;;;;;;30.05;19.15;;;;;;;9.53;100.00;100387.06;5218703;28;20127;-72
2021/12/24 05:29:33;;;;;;;29.38;17.35;;;;;;;9.52;100.00;100381.97;5218728;28;20030;-72
2021/12/24 05:32:05;;;;;;;28.75;17.92;;;;;;;9.54;100.00;100393.09;5218566;28;20045;-72
2021/12/24 05:34:37;;;;;;;29.25;17.98;;;;;;;9.54;100.00;100393.94;5217634;28;20033;-72
2021/12/24 05:37:08;;;;;;;29.05;18.40;;;;;;;9.53;100.00;100397.50;5216643;28;20030;-72
2021/12/24 05:39:39;;;;;;;24.85;16.13;;;;;;;9.49;100.00;100394.34;5217510;28;20030;-72
2021/12/24 05:42:10;;;;;;;32.53;17.48;;;;;;;9.46;100.00;100394.59;5219596;28;20034;-72
2021/12/24 05:44:42;;;;;;;26.30;15.00;;;;;;;9.48;100.00;100387.47;5219446;28;20436;-72
2021/12/24 05:47:13;;;;;;;28.38;16.85;;;;;;;9.47;100.00;100401.50;5217184;28;20026;-72
2021/12/24 05:49:44;;;;;;;27.83;15.20;;;;;;;9.47;100.00;100398.03;5219236;28;20026;-72
2021/12/24 05:52:16;;;;;;;23.65;15.63;;;;;;;9.46;100.00;100402.44;5220397;28;20096;-72
2021/12/24 05:54:47;;;;;;;30.92;14.85;;;;;;;9.40;100.00;100397.78;5219659;28;20058;-72
2021/12/24 05:57:18;;;;;;;31.55;14.82;;;;;;;9.41;100.00;100401.22;5217852;28;20040;-72
2021/12/24 05:59:50;;;;;;;27.52;13.98;;;;;;;9.40;100.00;100405.63;5222042;28;20057;-72
2021/12/24 06:02:21;;;;;;;23.95;14.05;;;;;;;9.43;100.00;100404.50;5218096;28;20032;-72
2021/12/24 06:04:52;;;;;;;27.38;14.23;;;;;;;9.45;100.00;100413.06;5217824;28;20022;-72
2021/12/24 06:07:24;;;;;;;28.60;13.20;;;;;;;9.39;100.00;100403.94;5218274;28;20420;-72
2021/12/24 06:09:55;;;;;;;26.02;13.73;;;;;;;9.45;100.00;100408.63;5222257;28;20083;-72
2021/12/24 06:12:27;;;;;;;26.92;14.10;;;;;;;9.45;100.00;100408.63;5222859;28;20398;-72
2021/12/24 06:15:03;;;;;;;26.35;13.38;;;;;;;9.42;100.00;100403.69;5222279;28;20022;-72
2021/12/24 06:17:37;;;;;;;33.17;14.70;;;;;;;9.35;100.00;100397.31;5222278;28;20052;-72
2021/12/24 06:20:10;;;;;;;24.83;13.10;;;;;;;9.42;100.00;100406.28;5223250;28;20021;-72
2021/12/24 06:22:42;;;;;;;21.92;12.40;;;;;;;9.37;100.00;100391.97;5219874;28;20403;-72
2021/12/24 06:25:14;;;;;;;31.02;13.82;;;;;;;9.36;100.00;100403.41;5221454;28;20031;-72
2021/12/24 06:27:47;;;;;;;23.35;11.82;;;;;;;9.41;100.00;100409.03;5219802;28;20030;-72
2021/12/24 06:30:18;;;;;;;25.20;12.82;;;;;;;9.38;100.00;100397.06;5220818;28;20083;-72
2021/12/24 06:32:49;;;;;;;24.63;12.52;;;;;;;9.37;100.00;100403.25;5221709;28;20105;-72
2021/12/24 06:35:21;;;;;;;22.23;12.48;;;;;;;9.39;100.00;100403.94;5224816;28;20039;-72
2021/12/24 06:37:54;;;;;;;21.45;12.52;;;;;;;9.37;100.00;100400.63;5221682;28;20037;-72
2021/12/24 06:40:25;;;;;;;22.17;11.25;;;;;;;9.37;100.00;100389.38;5220778;28;20850;-72
2021/12/24 06:42:57;;;;;;;26.42;11.95;;;;;;;9.33;100.00;100387.97;5222293;28;20059;-72
2021/12/24 06:45:30;;;;;;;22.17;11.18;;;;;;;9.39;100.00;100398.72;5222844;28;20025;-72
2021/12/24 06:48:04;;;;;;;23.08;11.30;;;;;;;9.38;100.00;100407.50;5222381;28;20030;-72
2021/12/24 06:50:35;;;;;;;;;;;;;;;9.80;100.00;100409.94;5223766;28;20026;-72
2021/12/24 06:53:06;;;;;;;23.80;11.53;;;;;;;9.44;100.00;100414.03;5221126;28;19991;-72
2021/12/24 06:55:37;;;;;;;25.60;11.45;;;;;;;9.41;100.00;100409.03;5219681;28;20408;-72
2021/12/24 06:58:09;;;;;;;22.98;12.48;;;;;;;9.37;100.00;100411.09;5222821;28;20468;-72
2021/12/24 07:00:40;;;;;;;24.38;12.30;;;;;;;9.37;100.00;100410.28;5222050;28;20495;-72
2021/12/24 07:03:12;;;;;;;23.10;13.65;;;;;;;9.36;100.00;100396.38;5221485;28;20030;-72
2021/12/24 07:05:43;;;;;;;26.80;13.52;;;;;;;9.30;100.00;100399.53;5221510;28;20060;-72
2021/12/24 07:08:14;;;;;;;31.40;14.85;;;;;;;9.35;100.00;100404.34;5221211;28;20120;-72
2021/12/24 07:10:45;;;;;;;26.95;14.73;;;;;;;9.36;100.00;100396.38;5221667;28;20099;-72
2021/12/24 07:13:18;;;;;;;28.70;15.32;;;;;;;9.35;100.00;100401.72;5220487;28;20036;-72
2021/12/24 07:15:50;;;;;;;22.65;14.23;;;;;;;9.30;100.00;100394.28;5220818;28;20029;-72
2021/12/24 07:18:21;;;;;;;29.02;14.80;;;;;;;9.31;100.00;100395.94;5220342;28;20034;-72
2021/12/24 07:20:53;;;;;;;30.35;15.18;;;;;;;9.33;100.00;100396.66;5218671;28;20030;-72
2021/12/24 07:23:24;;;;;;;28.65;15.35;;;;;;;9.36;100.00;100390.34;5217432;28;20176;-72
2021/12/24 07:25:56;;;;;;;26.38;15.60;;;;;;;9.34;100.00;100390.44;5217601;28;20026;-71
2021/12/24 07:28:27;;;;;;;31.00;16.67;;;;;;;9.34;100.00;100398.28;5214931;28;20117;-72
2021/12/24 07:30:58;;;;;;;28.60;17.05;;;;;;;9.34;100.00;100407.91;5215325;28;20026;-72
2021/12/24 07:33:29;;;;;;;29.13;17.95;;;;;;;9.29;100.00;100408.31;5215376;28;20037;-72
2021/12/24 07:36:02;;;;;;;31.15;18.90;;;;;;;9.32;100.00;100404.59;5214309;28;20032;-72
2021/12/24 07:38:33;;;;;;;30.60;19.40;;;;;;;9.29;100.00;100399.66;5216833;28;20038;-74
2021/12/24 07:41:04;;;;;;;34.75;17.40;;;;;;;9.31;100.00;100409.00;5215851;28;20032;-73
2021/12/24 07:43:36;;;;;;;37.15;19.90;;;;;;;9.31;100.00;100414.22;5214990;28;20030;-71
2021/12/24 07:46:07;;;;;;;30.52;18.38;;;;;;;9.30;100.00;100417.81;5216737;28;20049;-72
2021/12/24 07:48:48;;;;;;;30.05;19.38;;;;;;;9.27;100.00;100426.75;5215718;28;20028;-72
2021/12/24 07:54:09;;;;;;;29.83;18.35;;;;;;;9.31;100.00;100427.31;5220284;28;20054;-72
2021/12/24 07:56:40;;;;;;;39.58;19.42;;;;;;;9.31;100.00;100406.38;5220884;28;20026;-72
2021/12/24 07:59:14;;;;;;;32.25;18.50;;;;;;;9.30;100.00;100409.16;5220259;28;20030;-72
2021/12/24 08:01:47;;;;;;;35.53;17.95;;;;;;;9.25;100.00;100405.16;5218603;28;20037;-71
2021/12/24 08:04:19;;;;;;;31.00;18.00;;;;;;;9.26;100.00;100405.97;5219919;28;20017;-71
2021/12/24 08:06:50;;;;;;;34.65;18.75;;;;;;;9.19;100.00;100389.16;5217977;28;20025;-72
2021/12/24 08:09:21;;;;;;;36.88;17.80;;;;;;;9.21;100.00;100405.56;5216928;28;20411;-71
2021/12/24 08:11:53;;;;;;;31.25;17.25;;;;;;;9.17;100.00;100404.16;5215501;28;20138;-71
2021/12/24 08:14:24;;;;;;;31.80;17.55;;;;;;;9.15;100.00;100400.84;5221506;28;20044;-71
2021/12/24 08:16:55;;;;;;;34.33;17.52;;;;;;;9.07;100.00;100400.69;5215823;28;20017;-71
2021/12/24 08:19:26;;;;;;;28.70;17.48;;;;;;;9.09;100.00;100407.44;5222089;28;20029;-72
2021/12/24 08:21:59;;;;;;;29.52;15.98;;;;;;;9.08;100.00;100410.97;5222305;28;20036;-72
2021/12/24 08:24:30;;;;;;;32.00;16.48;;;;;;;9.03;100.00;100407.94;5221500;28;20057;-72
2021/12/24 08:27:02;;;;;;;31.38;16.60;;;;;;;9.02;100.00;100409.72;5218917;28;20068;-71
2021/12/24 08:29:34;;;;;;;30.27;17.38;;;;;;;9.05;100.00;100420.88;5217929;28;20407;-72
2021/12/24 08:32:07;;;;;;;29.47;15.97;;;;;;;9.09;100.00;100424.88;5219511;28;20046;-71
2021/12/24 08:34:39;;;;;;;29.00;15.85;;;;;;;9.08;100.00;100408.38;5218987;28;20034;-72
2021/12/24 08:37:10;;;;;;;30.08;15.90;;;;;;;9.11;100.00;100404.69;5220845;28;20708;-71
2021/12/24 08:39:41;;;;;;;32.17;15.88;;;;;;;9.14;100.00;100400.03;5219489;28;20033;-71
2021/12/24 08:42:13;;;;;;;27.00;16.30;;;;;;;9.12;100.00;100395.88;5217916;28;20022;-72
2021/12/24 08:44:44;;;;;;;31.08;16.15;;;;;;;9.16;100.00;100392.84;5219735;28;20057;-72
2021/12/24 08:47:15;;;;;;;31.55;16.58;;;;;;;9.18;100.00;100393.56;5217695;28;20028;-72
2021/12/24 08:49:47;;;;;;;38.03;15.95;;;;;;;9.24;100.00;100397.41;5215275;28;20025;-72
2021/12/24 08:52:18;;;;;;;33.25;16.13;;;;;;;9.21;100.00;100397.72;5213650;28;20033;-75
2021/12/24 08:54:49;;;;;;;34.85;17.60;;;;;;;9.25;100.00;100402.53;5214197;28;20132;-77
2021/12/24 08:57:21;;;;;;;34.03;17.98;;;;;;;9.30;100.00;100393.47;5214259;28;20399;-72
2021/12/24 08:59:52;;;;;;;37.53;20.25;;;;;;;9.33;100.00;100387.97;5212611;28;20028;-73
2021/12/24 09:02:23;;;;;;;32.50;19.17;;;;;;;9.40;100.00;100391.72;5214559;28;20087;-73
2021/12/24 09:04:55;;;;;;;31.20;18.58;;;;;;;9.40;100.00;100395.16;5213367;28;20354;-74
2021/12/24 09:07:26;;;;;;;30.45;18.00;;;;;;;9.37;100.00;100390.19;5214166;28;20018;-72
2021/12/24 09:09:57;;;;;;;33.28;19.75;;;;;;;9.39;100.00;100393.47;5214849;28;20033;-72
2021/12/24 09:12:29;;;;;;;33.58;20.25;;;;;;;9.43;100.00;100400.13;5215011;28;20312;-72
2021/12/24 09:15:00;;;;;;;40.17;20.92;;;;;;;9.43;100.00;100399.28;5213014;28;20026;-72
2021/12/24 09:17:32;;;;;;;34.47;21.55;;;;;;;9.47;100.00;100387.56;5212900;28;20437;-72
2021/12/24 09:20:05;;;;;;;37.08;21.25;;;;;;;9.48;100.00;100394.47;5216066;28;20375;-72
2021/12/24 09:22:38;;;;;;;31.38;21.02;;;;;;;9.52;100.00;100385.41;5213012;28;20053;-72
2021/12/24 09:25:09;;;;;;;34.13;21.23;;;;;;;9.52;100.00;100393.25;5214136;28;20054;-72
2021/12/24 09:27:41;;;;;;;49.00;22.80;;;;;;;9.52;100.00;100395.03;5212773;28;20128;-72
2021/12/24 09:30:12;;;;;;;38.72;21.15;;;;;;;9.54;100.00;100390.50;5214148;28;20025;-72
2021/12/24 09:32:44;;;;;;;38.92;21.08;;;;;;;9.53;100.00;100389.66;5215905;28;20072;-71
2021/12/24 09:35:15;;;;;;;38.05;22.15;;;;;;;9.55;100.00;100392.16;5218505;28;20092;-72
2021/12/24 09:37:48;;;;;;;39.67;20.95;;;;;;;9.57;100.00;100392.84;5217462;28;20038;-71
2021/12/24 09:40:20;;;;;;;37.13;20.27;;;;;;;9.56;100.00;100399.88;5215005;28;20083;-72
2021/12/24 09:42:52;;;;;;;37.47;20.23;;;;;;;9.58;100.00;100394.50;5214312;28;20108;-71
2021/12/24 09:45:23;;;;;;;36.60;19.73;;;;;;;9.57;100.00;100398.06;5219294;28;20114;-72
2021/12/24 09:47:54;;;;;;;37.03;20.15;;;;;;;9.54;100.00;100396.53;5219271;28;20479;-72
2021/12/24 09:50:28;;;;;;;34.25;19.08;;;;;;;9.57;100.00;100398.06;5217153;28;20048;-72
2021/12/24 09:53:00;;;;;;;32.42;19.33;;;;;;;9.57;100.00;100393.66;5237792;28;20040;-72
2021/12/24 09:55:31;;;;;;;42.28;20.10;;;;;;;9.61;100.00;100395.03;5217427;28;20375;-72
2021/12/24 09:58:03;;;;;;;36.30;20.35;;;;;;;9.61;100.00;100384.59;5220374;28;20129;-72
2021/12/24 10:00:34;;;;;;;38.22;20.38;;;;;;;9.60;100.00;100380.31;5219940;28;20030;-72
2021/12/24 10:03:06;;;;;;;33.90;20.23;;;;;;;9.63;100.00;100384.47;5218346;28;20064;-72
2021/12/24 10:05:40;;;;;;;42.17;23.23;;;;;;;9.61;100.00;100384.59;5220050;28;20091;-72
2021/12/24 10:08:18;;;;;;;41.03;23.52;;;;;;;9.71;100.00;100387.22;5223103;28;20689;-72
2021/12/24 10:10:54;;;;;;;38.88;23.70;;;;;;;9.66;100.00;100390.25;5221966;28;20037;-72
2021/12/24 10:13:39;;;;;;;36.65;24.88;;;;;;;9.68;100.00;100390.94;5222501;28;20032;-71
2021/12/24 10:16:21;;;;;;;44.88;24.25;;;;;;;9.70;100.00;100390.81;5220330;28;20037;-72
2021/12/24 10:18:56;;;;;;;42.00;24.60;;;;;;;9.66;100.00;100385.03;5221167;28;20029;-74
2021/12/24 10:21:29;;;;;;;39.08;25.00;;;;;;;9.67;100.00;100381.44;5220932;28;20029;-72
2021/12/24 10:24:12;;;;;;;43.72;25.10;;;;;;;9.78;100.00;100385.72;5219278;28;20025;-72
2021/12/24 10:26:47;;;;;;;37.35;24.50;;;;;;;9.74;100.00;100377.31;5220706;28;20036;-72
2021/12/24 10:29:20;;;;;;;34.50;23.20;;;;;;;9.77;100.00;100391.06;5219139;28;20109;-72
2021/12/24 10:31:56;;;;;;;34.78;22.70;;;;;;;9.86;100.00;100380.63;5216771;28;20042;-72
2021/12/24 10:34:29;;;;;;;39.15;22.60;;;;;;;9.79;100.00;100378.69;5214111;28;20411;-73
2021/12/24 10:37:12;;;;;;;39.88;23.77;;;;;;;9.81;100.00;100374.16;5215792;28;20029;-72
2021/12/24 10:39:58;;;;;;;43.67;23.13;;;;;;;9.94;100.00;100370.31;5215680;28;20125;-72
2021/12/24 10:42:35;;;;;;;37.75;22.63;;;;;;;9.83;100.00;100370.44;5215944;28;20124;-72
2021/12/24 10:45:17;;;;;;;38.88;21.90;;;;;;;9.84;100.00;100374.69;5215803;28;20076;-72
2021/12/24 10:47:49;;;;;;;44.45;24.42;;;;;;;9.86;100.00;100371.97;5215368;28;20520;-75
2021/12/24 10:55:44;;;;;;;50.22;29.73;;;;;;;9.97;100.00;100371.84;5214923;28;20050;-72
2021/12/24 10:58:18;;;;;;;51.65;29.98;;;;;;;9.98;100.00;100361.22;5215746;28;20026;-75
2021/12/24 11:01:01;;;;;;;52.67;32.15;;;;;;;10.05;100.00;100350.19;5217776;28;20064;-72
2021/12/24 11:03:34;;;;;;;55.65;36.60;;;;;;;9.95;100.00;100342.34;5214908;28;20025;-72
2021/12/24 11:06:11;;;;;;;56.57;36.13;;;;;;;10.06;100.00;100355.28;5215278;28;20032;-72
2021/12/24 11:08:43;;;;;;;56.60;36.45;;;;;;;9.99;100.00;100359.41;5219245;28;20034;-73
2021/12/24 11:11:20;;;;;;;63.45;36.38;;;;;;;10.01;100.00;100362.75;5216023;28;20025;-72
2021/12/24 11:13:52;;;;;;;53.70;35.00;;;;;;;10.02;100.00;100347.84;5220863;28;20032;-72
2021/12/24 11:16:24;;;;;;;55.17;36.88;;;;;;;10.09;100.00;100356.81;5217084;28;20040;-72
2021/12/24 11:19:01;;;;;;;65.10;38.28;;;;;;;10.16;100.00;100352.69;5216203;28;20026;-73
2021/12/24 11:21:33;;;;;;;60.85;38.72;;;;;;;10.10;100.00;100348.00;5216698;28;20066;-75
2021/12/24 11:24:04;;;;;;;61.00;40.22;;;;;;;10.13;100.00;100351.16;5219017;28;20424;-72
2021/12/24 11:26:50;;;;;;;62.47;39.17;;;;;;;10.11;100.00;100347.00;5219147;28;20461;-72
2021/12/24 11:29:21;;;;;;;59.00;39.47;;;;;;;10.14;100.00;100354.59;5218336;28;20542;-72
2021/12/24 11:31:53;;;;;;;58.33;38.92;;;;;;;10.14;100.00;100351.97;5221434;28;20217;-72
2021/12/24 11:34:25;;;;;;;55.42;38.08;;;;;;;10.15;100.00;100356.22;5214728;28;20640;-73
2021/12/24 11:36:58;;;;;;;56.83;38.53;;;;;;;10.12;100.00;100352.13;5213468;28;20091;-72
2021/12/24 11:39:29;;;;;;;55.40;37.38;;;;;;;10.15;100.00;100356.22;5213657;28;20645;-72
2021/12/24 11:42:00;;;;;;;57.58;38.10;;;;;;;10.17;100.00;100363.00;5214647;28;20057;-72
2021/12/24 11:44:32;;;;;;;62.60;38.78;;;;;;;10.19;100.00;100365.47;5214053;28;20040;-72
2021/12/24 11:47:04;;;;;;;54.47;37.17;;;;;;;10.14;100.00;100362.44;5217607;28;20029;-76
2021/12/24 11:49:35;;;;;;;50.88;34.85;;;;;;;10.13;100.00;100366.03;5215005;28;20499;-75
2021/12/24 11:52:07;;;;;;;58.35;36.33;;;;;;;10.14;100.00;100371.13;5217340;28;20041;-73
2021/12/24 11:54:39;;;;;;;53.17;36.55;;;;;;;10.11;100.00;100360.91;5214688;28;20041;-72
2021/12/24 11:57:22;;;;;;;50.72;36.05;;;;;;;10.18;100.00;100361.19;5215680;28;20104;-71
2021/12/24 11:59:54;;;;;;;51.53;33.90;;;;;;;10.12;100.00;100359.16;5213813;28;20281;-73
2021/12/24 12:02:49;;;;;;;50.78;34.35;;;;;;;10.24;100.00;100363.28;5216517;28;20530;-72
2021/12/24 12:05:27;;;;;;;58.03;34.20;;;;;;;10.15;100.00;100358.84;5216702;28;20521;-74
2021/12/24 12:08:27;;;;;;;59.10;35.08;;;;;;;10.24;100.00;100353.63;5215179;28;20032;-72
2021/12/24 12:11:24;;;;;;;53.00;34.00;;;;;;;10.14;100.00;100342.31;5214570;28;20459;-72
2021/12/24 12:13:55;;;;;;;52.10;33.38;;;;;;;10.11;100.00;100352.25;5214165;28;20017;-75
2021/12/24 12:16:47;;;;;;;53.03;33.08;;;;;;;10.13;100.00;100345.91;5229487;28;20087;-72
2021/12/24 12:22:14;;;;;;;44.03;30.70;;;;;;;10.28;100.00;100348.16;5212442;28;20095;-73
2021/12/24 12:24:57;;;;;;;52.53;30.88;;;;;;;10.18;100.00;100350.72;5213050;28;20091;-72
2021/12/24 12:27:38;;;;;;;45.30;30.40;;;;;;;10.25;100.00;100349.25;5216409;28;20236;-74
2021/12/24 12:30:22;;;;;;;49.38;29.80;;;;;;;10.24;100.00;100345.75;5215290;28;20117;-73
2021/12/24 12:33:34;;;;;;;48.13;30.48;;;;;;;10.31;100.00;100343.44;5214644;28;20069;-75
2021/12/24 12:36:06;;;;;;;52.60;32.03;;;;;;;10.07;100.00;100333.38;5213129;28;20584;-72
2021/12/24 12:38:40;;;;;;;43.07;29.07;;;;;;;10.14;100.00;100336.28;5215059;28;20107;-75
2021/12/24 12:41:35;;;;;;;46.15;30.42;;;;;;;10.30;100.00;100341.78;5215447;28;20060;-75
2021/12/24 12:44:10;;;;;;;49.38;30.38;;;;;;;10.13;100.00;100342.47;5214733;28;20538;-73
2021/12/24 12:46:44;;;;;;;42.85;30.60;;;;;;;10.15;100.00;100344.00;5213433;28;20057;-72
2021/12/24 12:49:28;;;;;;;45.47;30.33;;;;;;;10.23;100.00;100345.91;5216268;28;20128;-75
2021/12/24 12:52:06;;;;;;;49.70;29.40;;;;;;;10.17;100.00;100343.84;5215826;28;20497;-75
2021/12/24 12:54:41;;;;;;;41.42;27.80;;;;;;;10.17;100.00;100343.84;5212066;28;20051;-74
2021/12/24 12:57:32;;;;;;;43.22;27.08;;;;;;;10.24;100.00;100334.47;5211401;28;20030;-74
2021/12/24 13:00:19;;;;;;;55.20;28.42;;;;;;;10.33;100.00;100333.66;5211985;28;20029;-72
2021/12/24 13:02:57;;;;;;;43.97;27.60;;;;;;;10.35;100.00;100330.91;5213149;28;20996;-72
2021/12/24 13:05:30;;;;;;;43.72;26.80;;;;;;;10.26;100.00;100329.94;5213373;28;20053;-72
2021/12/24 13:08:16;;;;;;;44.67;29.23;;;;;;;10.39;100.00;100330.47;5214285;28;20028;-73
2021/12/24 13:10:56;;;;;;;50.45;28.13;;;;;;;10.41;100.00;100331.16;5213841;28;20152;-72
2021/12/24 13:13:28;;;;;;;42.50;25.42;;;;;;;10.32;100.00;100332.00;5215314;28;20121;-71
2021/12/24 13:15:59;;;;;;;45.97;26.88;;;;;;;10.38;100.00;100334.06;5210439;28;20037;-74
2021/12/24 13:18:33;;;;;;;39.83;24.75;;;;;;;10.36;100.00;100336.00;5213066;28;20102;-72
2021/12/24 13:23:39;;;;;;;41.20;23.70;;;;;;;10.42;100.00;100329.38;5212935;28;20461;-72
2021/12/24 13:26:14;;;;;;;40.25;24.63;;;;;;;10.39;100.00;100330.47;5215749;28;20025;-72